Dallas Center, IA (50063)

10:20 AM CST on December 29, 2014 (GMT -0600)
SBALDNERFARMS | Change Station
CLOSE
Current Station
Personal Weather Station
Location: Dallas Center, IA
Elevation: 1100 ft
Nearby Weather Stations

Elev 1100 ft 41.71 °N, 93.93 °W | Updated 3 minutes ago

Overcast
Overcast
21.6 °F
Feels Like 10 °F
N
12.0
Wind Variable Wind from NE
Gusts 15.0 mph

Today
High -- | Low -- °F
--% Chance of Precip.
Yesterday
High -- | Low -- °F
Precip. -- in
7:42 AM 4:53 PM
First Quarter, 60% visible
Pressure 30.44 in
Visibility 5.0 miles
Clouds Scattered Clouds 1100 ft
Overcast 2300 ft
Windchill 10 °F
Dew Point 19 °F
Humidity 91%
Rainfall 0.00 in
Snow Depth Not available.
UV 0 out of 12
Pollen .10 out of 12
Air Quality Not available.
Flu Activity Not available.
METAR KPRO 291615Z AUTO 02013KT 5SM BR SCT011 OVC023 M05/M07 A3044 RMK AO2 T10551073

More Conditions Fewer Conditions

Pressure 30.44 in
Visibility 5.0 miles
Clouds Scattered Clouds 1100 ft
Overcast 2300 ft
Windchill 10 °F
Dew Point 19 °F
Humidity 91%
Rainfall 0.00 in
Snow Depth Not available.
UV 0 out of 12
Pollen .10 out of 12
Air Quality Not available.
Flu Activity Not available.
METAR KPRO 291615Z AUTO 02013KT 5SM BR SCT011 OVC023 M05/M07 A3044 RMK AO2 T10551073

More Conditions Fewer Conditions

10-Day Weather Forecast

Almanac

Astronomy

Dec. 29, 2014 Rise Set
Actual Time
Civil Twilight
Nautical Twilight
Astronomical Twilight
Moon
Length of Visible Light
Length of Day
Tomorrow will be .
, % of the Moon is Illuminated

Today's Extremes

State Highs State Lows

Community

WunderPhotos

Upload Photos

1,781,631 photos uploaded!

WunderBlogs® & News

Nearby

Air Quality

  Air Quality AQ Index Pollutant
Not available.

Snow Depth

Station Depth Elevation

Earthquake Activity

City Distance Mag. Time & Date
Minimum magnitude displayed is 2.5.

Coastal Water Temperatures

Place Temperature

Nearby Weather Stations